Time;durP1;ratioP1;P1;durP2;ratioP2;P2;SDS_P1;SDS_P2;PMS_P1;PMS_P2;Temp;Humidity;BMP_temperature;BMP_pressure;BME280_temperature;BME280_humidity;BME280_pressure;Samples;Min_cycle;Max_cycle;Signal;HPM_P1;HPM_P2
2020/03/04 00:00:36;;;;;;;10.7;8.4;;;;;;;2.57;98.01953;998.0266;;;;
2020/03/04 00:02:53;;;;;;;10.7;8.2;;;;;;;2.58;98.11133;997.9938;;;;
2020/03/04 00:05:18;;;;;;;9.9;7.9;;;;;;;2.51;98.06445;998.0319;;;;
2020/03/04 00:07:43;;;;;;;11.4;8.3;;;;;;;2.53;98.06445;998.0556;;;;
2020/03/04 00:10:08;;;;;;;10.6;8.3;;;;;;;2.62;97.76172;998.0497;;;;
2020/03/04 00:12:33;;;;;;;10.9;8.1;;;;;;;2.66;97.74805;998.0974;;;;
2020/03/04 00:14:58;;;;;;;12.2;8.1;;;;;;;2.72;97.72852;998.1125;;;;
2020/03/04 00:17:23;;;;;;;10.6;7.7;;;;;;;2.7;97.56738;998.1364;;;;
2020/03/04 00:19:49;;;;;;;10.3;7.5;;;;;;;2.79;97.56738;998.0917;;;;
2020/03/04 00:22:14;;;;;;;10.7;7.3;;;;;;;2.88;96.93359;998.1604;;;;
2020/03/04 00:24:50;;;;;;;10;7.3;;;;;;;2.95;96.90527;998.2176;;;;
2020/03/04 00:27:04;;;;;;;8.2;6.9;;;;;;;3.11;96.25391;998.1066;;;;
2020/03/04 00:29:29;;;;;;;8.8;7;;;;;;;3.07;96.16895;998.1526;;;;
2020/03/04 00:31:56;;;;;;;9.6;7.5;;;;;;;3.06;95.99609;998.1279;;;;
2020/03/04 00:34:19;;;;;;;8.2;6.8;;;;;;;3.09;95.91211;998.1394;;;;
2020/03/04 00:36:45;;;;;;;9.5;7.4;;;;;;;3.12;95.83984;998.1448;;;;
2020/03/04 00:39:10;;;;;;;9.4;7.3;;;;;;;3.04;96.01465;998.2122;;;;
2020/03/04 00:41:35;;;;;;;9.3;7.6;;;;;;;3.04;96.20313;998.2033;;;;
2020/03/04 00:44:00;;;;;;;11.4;7.2;;;;;;;3.25;95.33887;998.1504;;;;
2020/03/04 00:46:25;;;;;;;8;6.7;;;;;;;3.25;95.20801;998.2043;;;;
2020/03/04 00:48:50;;;;;;;10.1;6.6;;;;;;;3.32;94.80566;998.117;;;;
2020/03/04 00:51:16;;;;;;;10.1;7.1;;;;;;;3.26;95.34277;998.1639;;;;
2020/03/04 00:53:41;;;;;;;9.8;7;;;;;;;3.18;94.9668;998.1556;;;;
2020/03/04 00:56:06;;;;;;;9;7;;;;;;;3.17;95.28906;998.1486;;;;
2020/03/04 00:58:31;;;;;;;9.1;6.4;;;;;;;3.3;94.9707;998.2289;;;;
2020/03/04 01:00:56;;;;;;;10.2;6.9;;;;;;;3.24;94.60742;998.3027;;;;
2020/03/04 01:03:24;;;;;;;8.4;6.5;;;;;;;3.21;94.5791;998.2561;;;;
2020/03/04 01:05:49;;;;;;;8;6.4;;;;;;;3.22;94.90723;998.25;;;;
2020/03/04 01:08:14;;;;;;;8.5;6.4;;;;;;;3.18;94.91992;998.2286;;;;
2020/03/04 01:10:39;;;;;;;9.7;6.5;;;;;;;3.25;94.79102;998.3064;;;;
2020/03/04 01:13:04;;;;;;;9.2;6.2;;;;;;;3.29;94.58398;998.2389;;;;
2020/03/04 01:15:29;;;;;;;6.5;5.7;;;;;;;3.38;94.33496;998.241;;;;
2020/03/04 01:17:54;;;;;;;7.8;5.5;;;;;;;3.44;93.49121;998.2911;;;;
2020/03/04 01:20:19;;;;;;;6.5;5;;;;;;;3.52;93.04785;998.2623;;;;
2020/03/04 01:22:44;;;;;;;6.6;4.8;;;;;;;3.55;92.45703;998.3433;;;;
2020/03/04 01:25:10;;;;;;;6.2;4.7;;;;;;;3.57;92.88867;998.3209;;;;
2020/03/04 01:27:34;;;;;;;6.4;4.7;;;;;;;3.57;92.28027;998.3333;;;;
2020/03/04 01:29:59;;;;;;;5.9;4.5;;;;;;;3.64;91.88086;998.3851;;;;
2020/03/04 01:32:25;;;;;;;7;4.8;;;;;;;3.8;91.51953;998.3759;;;;
2020/03/04 01:34:50;;;;;;;6.3;4.9;;;;;;;3.71;91.82715;998.4174;;;;
2020/03/04 01:37:15;;;;;;;6.9;5;;;;;;;3.69;91.86816;998.4025;;;;
2020/03/04 01:39:40;;;;;;;6.9;5.1;;;;;;;3.72;91.73926;998.4387;;;;
2020/03/04 01:42:05;;;;;;;7.3;5.6;;;;;;;3.77;91.89551;998.3917;;;;
2020/03/04 01:44:30;;;;;;;7.1;5.3;;;;;;;3.79;92.08105;998.4117;;;;
2020/03/04 01:46:55;;;;;;;7.9;5.1;;;;;;;3.92;91.21777;998.3074;;;;
2020/03/04 01:49:21;;;;;;;7.1;5.2;;;;;;;3.79;91.40527;998.4024;;;;
2020/03/04 01:51:46;;;;;;;7;5.3;;;;;;;3.76;91.71484;998.3809;;;;
2020/03/04 01:54:11;;;;;;;7.3;5.4;;;;;;;3.69;91.85742;998.3499;;;;
2020/03/04 01:56:36;;;;;;;7.4;5.4;;;;;;;3.72;91.66016;998.3552;;;;
2020/03/04 01:59:01;;;;;;;8.7;5.1;;;;;;;3.78;91.63965;998.3784;;;;
2020/03/04 02:01:27;;;;;;;6.8;5;;;;;;;3.73;91.74121;998.3408;;;;
2020/03/04 02:03:52;;;;;;;7.4;4.9;;;;;;;3.73;91.83105;998.3765;;;;
2020/03/04 02:06:17;;;;;;;6.8;5.2;;;;;;;3.69;91.65625;998.3377;;;;
2020/03/04 02:08:42;;;;;;;7.4;5;;;;;;;3.78;91.5498;998.3851;;;;
2020/03/04 02:11:07;;;;;;;7.6;4.9;;;;;;;3.72;91.59277;998.3836;;;;
2020/03/04 02:13:54;;;;;;;7.4;5.2;;;;;;;3.81;91.75781;998.4498;;;;
2020/03/04 02:16:04;;;;;;;6.7;5;;;;;;;3.9;91.26074;998.4877;;;;
2020/03/04 02:18:23;;;;;;;7.2;4.6;;;;;;;3.83;91.39063;998.5178;;;;
2020/03/04 02:20:48;;;;;;;7.2;4.6;;;;;;;3.88;91.1543;998.5172;;;;
2020/03/04 02:23:13;;;;;;;6.4;4.6;;;;;;;3.86;90.84375;998.5575;;;;
2020/03/04 02:25:38;;;;;;;6.4;4.4;;;;;;;3.85;90.73145;998.6113;;;;
2020/03/04 02:28:03;;;;;;;5.8;4.1;;;;;;;3.89;90.26563;998.6232;;;;
2020/03/04 02:30:28;;;;;;;6.3;4.2;;;;;;;3.89;90.6377;998.6383;;;;
2020/03/04 02:32:53;;;;;;;5.8;4.1;;;;;;;3.91;90.57324;998.6431;;;;
2020/03/04 02:35:19;;;;;;;5.5;4.3;;;;;;;3.86;90.74414;998.6761;;;;
2020/03/04 02:37:44;;;;;;;6.6;4.4;;;;;;;3.82;91.07324;998.5825;;;;
2020/03/04 02:40:09;;;;;;;5.5;4.3;;;;;;;3.93;90.87012;998.7065;;;;
2020/03/04 02:42:34;;;;;;;6;4.3;;;;;;;3.86;91.30566;998.7248;;;;
2020/03/04 02:44:59;;;;;;;6.4;4.5;;;;;;;3.87;91.06152;998.7452;;;;
2020/03/04 02:47:24;;;;;;;6.7;4.6;;;;;;;3.93;90.43066;998.757;;;;
2020/03/04 02:49:49;;;;;;;5.7;4.5;;;;;;;3.95;90.4707;998.8121;;;;
2020/03/04 02:52:14;;;;;;;6.8;4.9;;;;;;;3.92;90.72168;998.7999;;;;
2020/03/04 02:54:39;;;;;;;6.9;4.8;;;;;;;3.95;90.84277;998.8279;;;;
2020/03/04 02:57:04;;;;;;;6.6;4.3;;;;;;;4.08;90.10254;998.8091;;;;
2020/03/04 02:59:30;;;;;;;6.4;4.8;;;;;;;4.16;90.01758;998.8097;;;;
2020/03/04 03:01:55;;;;;;;5.7;4.2;;;;;;;4.11;89.63477;998.8223;;;;
2020/03/04 03:04:20;;;;;;;5.8;4;;;;;;;4.26;89.87012;998.8577;;;;
2020/03/04 03:06:45;;;;;;;6.4;4.1;;;;;;;4.26;89.54297;998.9506;;;;
2020/03/04 03:09:10;;;;;;;6.6;4;;;;;;;4.29;89.1875;998.9556;;;;
2020/03/04 03:11:35;;;;;;;5.8;4.1;;;;;;;4.19;89.26758;998.9522;;;;
2020/03/04 03:14:00;;;;;;;6.1;4;;;;;;;4.22;89.14063;998.9665;;;;
2020/03/04 03:16:26;;;;;;;4.9;3.6;;;;;;;4.19;89.10059;999.0247;;;;
2020/03/04 03:18:51;;;;;;;7;3.9;;;;;;;4.38;88.24707;999.0092;;;;
2020/03/04 03:21:16;;;;;;;6;3.7;;;;;;;4.26;88.63965;999.1005;;;;
2020/03/04 03:23:41;;;;;;;6;3.7;;;;;;;4.26;88.5498;999.1016;;;;
2020/03/04 03:26:06;;;;;;;6;3.5;;;;;;;4.34;88.41992;999.1797;;;;
2020/03/04 03:28:31;;;;;;;6.2;3.2;;;;;;;4.3;88.13086;999.2444;;;;
2020/03/04 03:30:57;;;;;;;5.5;3.4;;;;;;;4.31;88.29004;999.2935;;;;
2020/03/04 03:33:22;;;;;;;4.4;3.1;;;;;;;4.34;87.83301;999.3414;;;;
2020/03/04 03:38:12;;;;;;;5.2;3;;;;;;;4.34;87.65234;999.2969;;;;
2020/03/04 03:40:37;;;;;;;5;3;;;;;;;4.45;87.84375;999.3275;;;;
2020/03/04 03:43:02;;;;;;;4.5;2.9;;;;;;;4.37;87.78418;999.3376;;;;
2020/03/04 03:45:28;;;;;;;5.1;3.2;;;;;;;4.36;87.84863;999.3224;;;;
2020/03/04 03:47:53;;;;;;;5.6;2.9;;;;;;;4.41;87.69922;999.3652;;;;
2020/03/04 03:50:18;;;;;;;5.5;3.2;;;;;;;4.32;87.93066;999.4244;;;;
2020/03/04 03:52:43;;;;;;;7.5;3.1;;;;;;;4.34;88.34082;999.3953;;;;
2020/03/04 03:55:09;;;;;;;6.5;3.1;;;;;;;4.48;87.2627;999.3422;;;;
2020/03/04 03:57:34;;;;;;;4.3;3.2;;;;;;;4.41;87.52051;999.3592;;;;
2020/03/04 03:59:59;;;;;;;6.8;3.6;;;;;;;4.43;87.06152;999.4113;;;;
2020/03/04 04:02:27;;;;;;;6.6;3.3;;;;;;;4.42;87.78223;999.4333;;;;
2020/03/04 04:04:52;;;;;;;4.9;3;;;;;;;4.33;87.83105;999.3778;;;;
2020/03/04 04:07:17;;;;;;;4.9;3;;;;;;;4.34;87.73145;999.407;;;;
2020/03/04 04:09:42;;;;;;;5;3.2;;;;;;;4.24;88.20801;999.376;;;;
2020/03/04 04:12:08;;;;;;;6.9;3.3;;;;;;;4.15;88.83008;999.3909;;;;
2020/03/04 04:14:33;;;;;;;5.8;3.2;;;;;;;4.02;89.04004;999.4097;;;;
2020/03/04 04:16:58;;;;;;;7.3;3.5;;;;;;;3.99;89.41602;999.4389;;;;
2020/03/04 04:19:23;;;;;;;6.3;3.4;;;;;;;3.97;89.73047;999.4128;;;;
2020/03/04 04:24:13;;;;;;;7.5;3.9;;;;;;;3.77;90.2627;999.4947;;;;
2020/03/04 04:26:39;;;;;;;6.2;3.9;;;;;;;3.8;90.34766;999.4894;;;;
2020/03/04 04:29:04;;;;;;;9.2;4.1;;;;;;;3.69;90.78711;999.4563;;;;
2020/03/04 04:31:29;;;;;;;6.7;3.9;;;;;;;3.69;91.06836;999.4481;;;;
2020/03/04 04:33:54;;;;;;;6.3;4.1;;;;;;;3.61;91.44727;999.4384;;;;
2020/03/04 04:36:19;;;;;;;7.8;4.3;;;;;;;3.63;91.38184;999.4294;;;;
2020/03/04 04:38:44;;;;;;;6.7;4.3;;;;;;;3.6;91.56543;999.454;;;;
2020/03/04 04:41:09;;;;;;;7.7;4.2;;;;;;;3.67;91.45898;999.5215;;;;
2020/03/04 04:43:34;;;;;;;5.9;4;;;;;;;3.62;91.2666;999.5101;;;;
2020/03/04 04:45:59;;;;;;;7.1;4.3;;;;;;;3.55;91.57813;999.5533;;;;
2020/03/04 04:48:25;;;;;;;6.4;4.2;;;;;;;3.5;91.9834;999.5502;;;;
2020/03/04 04:50:50;;;;;;;6.2;4.3;;;;;;;3.58;91.57227;999.5956;;;;
2020/03/04 04:53:15;;;;;;;6.8;4.3;;;;;;;3.53;91.77734;999.6424;;;;
2020/03/04 04:55:41;;;;;;;7.8;4.7;;;;;;;3.53;91.87793;999.6828;;;;
2020/03/04 04:58:06;;;;;;;8.7;4.6;;;;;;;3.53;91.87988;999.68;;;;
2020/03/04 05:00:31;;;;;;;7.7;4.6;;;;;;;3.64;91.1582;999.7126;;;;
2020/03/04 05:02:56;;;;;;;7.8;4.6;;;;;;;3.69;91.13574;999.7526;;;;
2020/03/04 05:05:21;;;;;;;7.2;4.4;;;;;;;3.67;91.19922;999.8124;;;;
2020/03/04 05:07:46;;;;;;;6.7;4.4;;;;;;;3.7;90.76563;999.8205;;;;
2020/03/04 05:10:12;;;;;;;8.7;4.4;;;;;;;3.78;90.35352;999.8401;;;;
2020/03/04 05:12:37;;;;;;;8.3;4.9;;;;;;;3.83;90.25391;999.8116;;;;
2020/03/04 05:15:02;;;;;;;7.3;4.4;;;;;;;3.8;90.20117;999.8496;;;;
2020/03/04 05:17:27;;;;;;;7;4.7;;;;;;;3.8;90.16699;999.7726;;;;
2020/03/04 05:19:53;;;;;;;6.7;4.6;;;;;;;3.83;89.61133;999.748;;;;
2020/03/04 05:22:18;;;;;;;9.4;4.6;;;;;;;3.71;90.19336;999.7648;;;;
2020/03/04 05:24:43;;;;;;;6.4;4.7;;;;;;;3.72;89.74414;999.8105;;;;
2020/03/04 05:27:08;;;;;;;6.5;4.6;;;;;;;3.7;89.9209;999.7852;;;;
2020/03/04 05:29:33;;;;;;;8.2;4.7;;;;;;;3.62;90.34277;999.7433;;;;
2020/03/04 05:31:58;;;;;;;7.3;5.1;;;;;;;3.62;90.48926;999.7485;;;;
2020/03/04 05:34:23;;;;;;;7.5;4.8;;;;;;;3.6;90.32813;999.6913;;;;
2020/03/04 05:36:49;;;;;;;8.3;5.1;;;;;;;3.51;90.6377;999.7509;;;;
2020/03/04 05:39:14;;;;;;;9.4;5.2;;;;;;;3.47;90.98633;999.7981;;;;
2020/03/04 05:41:39;;;;;;;7.4;4.9;;;;;;;3.49;90.89063;999.8375;;;;
2020/03/04 05:44:04;;;;;;;9.5;4.5;;;;;;;3.5;91.04883;999.8828;;;;
2020/03/04 05:46:30;;;;;;;10;5.1;;;;;;;3.62;90.4668;999.8922;;;;
2020/03/04 05:48:55;;;;;;;8;4.7;;;;;;;3.67;90.19727;999.9698;;;;
2020/03/04 05:51:20;;;;;;;8.4;5;;;;;;;3.82;90.12793;999.8915;;;;
2020/03/04 05:53:45;;;;;;;6.3;4.5;;;;;;;3.81;89.78418;999.9373;;;;
2020/03/04 05:56:10;;;;;;;7.5;4.9;;;;;;;3.88;89.42969;999.9731;;;;
2020/03/04 05:58:35;;;;;;;7.4;4.6;;;;;;;4.05;88.55176;1000.024;;;;
2020/03/04 06:01:00;;;;;;;8.3;4.7;;;;;;;3.96;88.72266;1000.107;;;;
2020/03/04 06:03:25;;;;;;;9.8;5.1;;;;;;;4.03;88.66113;1000.018;;;;
2020/03/04 06:05:51;;;;;;;8.9;4.8;;;;;;;4.12;87.85645;1000.074;;;;
2020/03/04 06:08:16;;;;;;;8.6;4.8;;;;;;;4.14;87.72461;1000.122;;;;
2020/03/04 06:10:41;;;;;;;7;4.6;;;;;;;4.11;87.89746;1000.185;;;;
2020/03/04 06:13:06;;;;;;;7.9;5.2;;;;;;;4.18;87.73438;1000.185;;;;
2020/03/04 06:15:31;;;;;;;7.2;4.5;;;;;;;4.29;87.59668;1000.164;;;;
2020/03/04 06:17:56;;;;;;;9.3;5;;;;;;;4.3;87.24805;1000.236;;;;
2020/03/04 06:20:22;;;;;;;7.6;5;;;;;;;4.33;86.74805;1000.168;;;;
2020/03/04 06:22:47;;;;;;;7.6;5.2;;;;;;;4.25;86.97949;1000.247;;;;
2020/03/04 06:25:12;;;;;;;9.9;5.4;;;;;;;4.24;86.84277;1000.3;;;;
2020/03/04 06:27:38;;;;;;;9.2;5.7;;;;;;;4.27;86.88184;1000.327;;;;
2020/03/04 06:30:03;;;;;;;8.5;5.3;;;;;;;4.34;86.45703;1000.293;;;;
2020/03/04 06:32:28;;;;;;;10.8;5.8;;;;;;;4.25;86.88965;1000.391;;;;
2020/03/04 06:34:53;;;;;;;9.8;6;;;;;;;4.38;86.63477;1000.425;;;;
2020/03/04 06:37:18;;;;;;;9.5;5.9;;;;;;;4.42;85.89746;1000.3;;;;
2020/03/04 06:39:43;;;;;;;9.4;6.1;;;;;;;4.43;86.05762;1000.242;;;;
2020/03/04 06:42:08;;;;;;;9.2;5.6;;;;;;;4.37;86.27051;1000.248;;;;
2020/03/04 06:44:33;;;;;;;9.9;6;;;;;;;4.41;86.3584;1000.267;;;;
2020/03/04 06:46:58;;;;;;;8.9;5.7;;;;;;;4.53;85.60352;1000.273;;;;
2020/03/04 06:49:23;;;;;;;10.5;6;;;;;;;4.58;85.11719;1000.327;;;;
2020/03/04 06:51:49;;;;;;;10.7;6;;;;;;;4.72;84.55664;1000.367;;;;
2020/03/04 06:54:14;;;;;;;11.2;5.8;;;;;;;4.75;84.13477;1000.425;;;;
2020/03/04 06:56:39;;;;;;;7.8;5.3;;;;;;;4.9;84.17676;1000.395;;;;
2020/03/04 06:59:04;;;;;;;9.9;6;;;;;;;4.8;84.60645;1000.437;;;;
2020/03/04 07:01:29;;;;;;;9.9;5.3;;;;;;;4.97;83.88574;1000.427;;;;
2020/03/04 07:03:54;;;;;;;8.4;5.2;;;;;;;4.89;84.11621;1000.441;;;;
2020/03/04 07:07:19;;;;;;;9.8;5.5;;;;;;;4.92;84.10059;1000.472;;;;
2020/03/04 07:08:45;;;;;;;10.2;5.3;;;;;;;4.99;83.31055;1000.494;;;;
2020/03/04 07:11:10;;;;;;;8.4;5.1;;;;;;;4.98;83.73828;1000.524;;;;
2020/03/04 07:13:35;;;;;;;9.2;5.5;;;;;;;5;83.33496;1000.508;;;;
2020/03/04 07:16:00;;;;;;;7.3;4.4;;;;;;;5.06;82.33008;1000.547;;;;
2020/03/04 07:18:25;;;;;;;8.3;4.7;;;;;;;5.12;82.58887;1000.555;;;;
2020/03/04 07:20:50;;;;;;;9;4.8;;;;;;;5.09;82.00781;1000.539;;;;
2020/03/04 07:23:15;;;;;;;8.3;4.5;;;;;;;5.16;82.20215;1000.525;;;;
2020/03/04 07:25:40;;;;;;;13.4;9.3;;;;;;;5.08;82.22266;1000.574;;;;
2020/03/04 07:28:05;;;;;;;15.7;8.7;;;;;;;5.27;81.69141;1000.568;;;;
2020/03/04 07:30:30;;;;;;;9.4;6.3;;;;;;;5.25;81.84473;1000.553;;;;
2020/03/04 07:32:55;;;;;;;9.6;7;;;;;;;5.38;81.40723;1000.54;;;;
2020/03/04 07:35:20;;;;;;;8.4;4.4;;;;;;;5.32;81.27246;1000.525;;;;
2020/03/04 07:37:46;;;;;;;8.2;4.3;;;;;;;5.4;80.68652;1000.612;;;;
2020/03/04 07:40:11;;;;;;;8.6;4.6;;;;;;;5.28;80.91309;1000.523;;;;
2020/03/04 07:42:36;;;;;;;7.3;4.1;;;;;;;5.22;81.09375;1000.6;;;;
2020/03/04 07:45:01;;;;;;;8.4;4.1;;;;;;;5.41;80.76855;1000.574;;;;
2020/03/04 07:47:26;;;;;;;6.1;4.1;;;;;;;5.42;80.5332;1000.556;;;;
2020/03/04 07:49:51;;;;;;;7.2;4.4;;;;;;;5.54;79.84375;1000.53;;;;
2020/03/04 07:52:16;;;;;;;5.8;3.6;;;;;;;5.49;79.21191;1000.531;;;;
2020/03/04 07:54:41;;;;;;;8.4;3.6;;;;;;;5.56;79.30273;1000.544;;;;
2020/03/04 07:57:07;;;;;;;5.8;3.8;;;;;;;5.68;78.75781;1000.544;;;;
2020/03/04 07:59:32;;;;;;;7.1;3.7;;;;;;;5.84;78.41602;1000.608;;;;
2020/03/04 08:01:57;;;;;;;8.2;3.8;;;;;;;5.7;79.08008;1000.63;;;;
2020/03/04 08:04:22;;;;;;;5.8;3.6;;;;;;;5.63;79.63281;1000.669;;;;
2020/03/04 08:06:47;;;;;;;7.1;3.6;;;;;;;5.49;79.76465;1000.664;;;;
2020/03/04 08:09:12;;;;;;;7.9;3.7;;;;;;;5.57;79.4873;1000.664;;;;
2020/03/04 08:11:37;;;;;;;6.1;3.6;;;;;;;5.46;80.16699;1000.713;;;;
2020/03/04 08:14:02;;;;;;;6.7;3.7;;;;;;;5.59;80.08984;1000.68;;;;
2020/03/04 08:16:28;;;;;;;8.1;3.9;;;;;;;5.59;80.24805;1000.658;;;;
2020/03/04 08:18:52;;;;;;;7.6;3.7;;;;;;;5.62;80.16309;1000.731;;;;
2020/03/04 08:21:17;;;;;;;6.6;3.8;;;;;;;5.54;80.61328;1000.763;;;;
2020/03/04 08:23:43;;;;;;;7.4;3.9;;;;;;;5.92;79.87891;1000.69;;;;
2020/03/04 08:26:08;;;;;;;7.5;3.8;;;;;;;5.74;79.67578;1000.749;;;;
2020/03/04 08:28:33;;;;;;;8.6;4.7;;;;;;;5.91;79.99023;1000.724;;;;
2020/03/04 08:30:58;;;;;;;6.2;3.8;;;;;;;6.06;79.24902;1000.744;;;;
2020/03/04 08:33:23;;;;;;;7.3;3.8;;;;;;;5.89;79.7168;1000.78;;;;
2020/03/04 08:35:48;;;;;;;8;3.6;;;;;;;6.17;79.04004;1000.756;;;;
2020/03/04 08:38:13;;;;;;;6;3.7;;;;;;;6.1;79.09668;1000.772;;;;
2020/03/04 08:40:38;;;;;;;6.9;3.7;;;;;;;5.93;79.70117;1000.801;;;;
2020/03/04 08:43:03;;;;;;;5.8;3.5;;;;;;;5.99;80.20996;1000.893;;;;
2020/03/04 08:45:29;;;;;;;6.6;3.8;;;;;;;5.77;80.67871;1000.846;;;;
2020/03/04 08:47:54;;;;;;;7.8;3.7;;;;;;;5.72;81.50586;1000.932;;;;
2020/03/04 08:50:19;;;;;;;6.7;3.7;;;;;;;5.54;81.56348;1000.957;;;;
2020/03/04 08:52:44;;;;;;;8.5;4;;;;;;;5.69;81.72754;1000.927;;;;
2020/03/04 08:55:09;;;;;;;8.8;3.9;;;;;;;5.67;81.81445;1000.92;;;;
2020/03/04 08:57:34;;;;;;;7.5;3.9;;;;;;;5.66;81.86719;1000.974;;;;
2020/03/04 08:59:59;;;;;;;8.4;3.7;;;;;;;5.96;81.5752;1000.977;;;;
2020/03/04 09:02:24;;;;;;;6.9;3.8;;;;;;;5.9;81.25684;1000.97;;;;
2020/03/04 09:04:49;;;;;;;7.5;3.8;;;;;;;5.93;81.29785;1000.94;;;;
2020/03/04 09:07:14;;;;;;;8.4;4.2;;;;;;;5.98;81.39746;1000.982;;;;
2020/03/04 09:09:39;;;;;;;7.9;3.9;;;;;;;6.1;79.81055;1000.952;;;;
2020/03/04 09:12:05;;;;;;;7.9;4;;;;;;;6.08;80.11523;1000.986;;;;
2020/03/04 09:14:30;;;;;;;6.1;4;;;;;;;6.15;80.00195;1001.031;;;;
2020/03/04 09:16:55;;;;;;;8.8;3.9;;;;;;;6.24;79.59961;1001.058;;;;
2020/03/04 09:19:20;;;;;;;6.4;4.1;;;;;;;6.04;80.15137;1001.053;;;;
2020/03/04 09:21:45;;;;;;;7.5;4.4;;;;;;;6.29;79.96094;1001.054;;;;
2020/03/04 09:24:11;;;;;;;9.8;4.7;;;;;;;6.1;79.72168;1001.061;;;;
2020/03/04 09:26:36;;;;;;;8.4;4.1;;;;;;;6.18;79.53125;1001.053;;;;
2020/03/04 09:29:01;;;;;;;7.1;4.2;;;;;;;6;80.26758;1001.126;;;;
2020/03/04 09:31:26;;;;;;;7.9;4.1;;;;;;;6.24;79.41797;1001.133;;;;
2020/03/04 09:33:51;;;;;;;5.7;3.8;;;;;;;6.44;79.39941;1001.092;;;;
2020/03/04 09:36:17;;;;;;;6.5;3.6;;;;;;;6.44;78.86523;1001.083;;;;
2020/03/04 09:38:41;;;;;;;7.3;3.9;;;;;;;6.37;79.33008;1001.046;;;;
2020/03/04 09:41:06;;;;;;;6.2;3.8;;;;;;;6.44;79.28516;1001.063;;;;
2020/03/04 09:43:31;;;;;;;8.3;3.8;;;;;;;6.85;77.81738;1001.028;;;;
2020/03/04 09:45:56;;;;;;;6.4;3.7;;;;;;;6.87;76.9248;1001.111;;;;
2020/03/04 09:48:21;;;;;;;8;3.5;;;;;;;7.1;76.95508;1001.009;;;;
2020/03/04 09:50:47;;;;;;;8.4;4.1;;;;;;;6.98;76.73926;1001.028;;;;
2020/03/04 09:53:12;;;;;;;6.8;3.6;;;;;;;6.82;76.64258;1000.987;;;;
2020/03/04 09:55:37;;;;;;;8.1;4.1;;;;;;;6.74;76.84375;1001.012;;;;
2020/03/04 09:58:02;;;;;;;7.6;3.9;;;;;;;6.78;76.73828;1001.038;;;;
2020/03/04 10:00:27;;;;;;;10.4;4.1;;;;;;;7.02;76.12109;1000.965;;;;
2020/03/04 10:02:52;;;;;;;8.1;4;;;;;;;7.22;75.16797;1000.972;;;;
2020/03/04 10:05:17;;;;;;;8.5;3.7;;;;;;;7.26;75.5752;1000.932;;;;
2020/03/04 10:07:42;;;;;;;6.5;3.6;;;;;;;7.37;74.92188;1000.941;;;;
2020/03/04 10:10:07;;;;;;;7.5;4;;;;;;;7.34;75.16797;1000.948;;;;
2020/03/04 10:12:32;;;;;;;7.1;3.5;;;;;;;7.37;74.54688;1000.925;;;;
2020/03/04 10:14:57;;;;;;;9.2;3.8;;;;;;;7.35;74.71582;1000.904;;;;
2020/03/04 10:17:22;;;;;;;8.8;3.9;;;;;;;7.32;74.77832;1000.948;;;;
2020/03/04 10:19:48;;;;;;;7.3;3.7;;;;;;;7.23;75.11426;1000.918;;;;
2020/03/04 10:22:13;;;;;;;7.8;3.6;;;;;;;7.62;74.36523;1000.946;;;;
2020/03/04 10:24:38;;;;;;;9.4;4.1;;;;;;;7.8;73.79297;1000.93;;;;
2020/03/04 10:27:03;;;;;;;8.4;3.7;;;;;;;7.8;73.48633;1000.921;;;;
2020/03/04 10:29:28;;;;;;;8.5;3.6;;;;;;;8.06;72.0957;1000.855;;;;
2020/03/04 10:31:53;;;;;;;9.2;4.1;;;;;;;8.11;71.60156;1000.881;;;;
2020/03/04 10:34:18;;;;;;;6.9;3.7;;;;;;;8.52;71.26074;1000.812;;;;
2020/03/04 10:36:43;;;;;;;7.5;3.9;;;;;;;8.57;70.22168;1000.842;;;;
2020/03/04 10:39:13;;;;;;;6.6;3.8;;;;;;;8.73;70.24609;1000.873;;;;
2020/03/04 10:41:37;;;;;;;7.6;3.7;;;;;;;8.91;69.31738;1000.883;;;;
2020/03/04 10:44:03;;;;;;;8.1;3.7;;;;;;;9.51;67.24512;1000.853;;;;
2020/03/04 10:46:28;;;;;;;6.4;3.5;;;;;;;9.72;65.85059;1000.826;;;;
2020/03/04 10:48:53;;;;;;;8.7;3.8;;;;;;;9.58;65.50684;1000.821;;;;
2020/03/04 10:51:18;;;;;;;8;3.8;;;;;;;10.13;64.25195;1000.838;;;;
2020/03/04 10:53:43;;;;;;;6.5;3.7;;;;;;;9.22;66.32129;1000.848;;;;
2020/03/04 10:56:09;;;;;;;6.9;3.6;;;;;;;9.29;65.7832;1000.89;;;;
2020/03/04 10:58:34;;;;;;;7.2;3.6;;;;;;;9.73;65.17578;1000.779;;;;
2020/03/04 11:01:00;;;;;;;6.7;3.5;;;;;;;9.86;64.94531;1000.791;;;;
2020/03/04 11:03:25;;;;;;;6.5;3.5;;;;;;;10.32;63.51465;1000.755;;;;
2020/03/04 11:05:50;;;;;;;6.6;3.3;;;;;;;9.86;64.75098;1000.713;;;;
2020/03/04 11:08:15;;;;;;;8;3.5;;;;;;;9.8;64.18262;1000.677;;;;
2020/03/04 11:10:40;;;;;;;7;3.5;;;;;;;9.5;64.81055;1000.735;;;;
2020/03/04 11:13:05;;;;;;;7.2;3.5;;;;;;;8.99;66.0459;1000.717;;;;
2020/03/04 11:15:30;;;;;;;8;3.3;;;;;;;8.87;67.32715;1000.803;;;;
2020/03/04 11:17:55;;;;;;;7.4;3.6;;;;;;;9.2;66.39844;1000.714;;;;
2020/03/04 11:20:21;;;;;;;6.9;3.4;;;;;;;9.06;67.01465;1000.775;;;;
2020/03/04 11:22:46;;;;;;;9.1;3.8;;;;;;;9.14;67.49512;1000.822;;;;
2020/03/04 11:25:11;;;;;;;8;3.7;;;;;;;9.71;66.63574;1000.737;;;;
2020/03/04 11:27:36;;;;;;;7.4;3.5;;;;;;;9.9;66.03613;1000.714;;;;
2020/03/04 11:30:01;;;;;;;9.8;4.5;;;;;;;10.04;64.30859;1000.721;;;;
2020/03/04 11:32:26;;;;;;;9.8;3.3;;;;;;;9.59;65.12109;1000.588;;;;
2020/03/04 11:34:51;;;;;;;9.1;3.5;;;;;;;9.49;64.69434;1000.628;;;;
2020/03/04 11:37:16;;;;;;;8.3;3.3;;;;;;;9.56;65.02441;1000.541;;;;
2020/03/04 11:39:48;;;;;;;8;4.1;;;;;;;9.69;63.94824;1000.603;;;;
2020/03/04 11:44:32;;;;;;;11.4;3.8;;;;;;;9.19;65.59766;1000.582;;;;
2020/03/04 11:46:58;;;;;;;7.8;3.6;;;;;;;9.56;65.69824;1000.573;;;;
2020/03/04 11:49:23;;;;;;;8.6;3.3;;;;;;;10.12;64.35352;1000.522;;;;
2020/03/04 11:51:48;;;;;;;7.2;3.1;;;;;;;10.18;63.68848;1000.492;;;;
2020/03/04 11:54:13;;;;;;;8.9;3.5;;;;;;;9.55;64.77344;1000.392;;;;
2020/03/04 11:56:38;;;;;;;8.3;3.5;;;;;;;9.75;65.43164;1000.439;;;;
2020/03/04 11:59:03;;;;;;;8.2;3.1;;;;;;;10;64.62207;1000.47;;;;
2020/03/04 12:01:29;;;;;;;10.8;3.5;;;;;;;10;63.87891;1000.244;;;;
2020/03/04 12:03:54;;;;;;;8.9;3.6;;;;;;;9.62;65.19434;1000.332;;;;
2020/03/04 12:06:19;;;;;;;10.4;3.3;;;;;;;9.66;65.62305;1000.411;;;;
2020/03/04 12:08:44;;;;;;;7.7;3.1;;;;;;;10.06;63.55664;1000.367;;;;
2020/03/04 12:11:09;;;;;;;7.7;3.2;;;;;;;9.88;64.54883;1000.359;;;;
2020/03/04 12:13:34;;;;;;;8;3;;;;;;;9.64;65.31055;1000.31;;;;
2020/03/04 12:15:59;;;;;;;7.9;2.9;;;;;;;10.09;63.91504;1000.254;;;;
2020/03/04 12:18:24;;;;;;;8.5;2.9;;;;;;;10.25;63.28711;1000.205;;;;
2020/03/04 12:20:49;;;;;;;7.6;2.8;;;;;;;10.53;63.09863;1000.164;;;;
2020/03/04 12:23:15;;;;;;;7.5;3.1;;;;;;;9.88;64.1377;1000.11;;;;
2020/03/04 12:25:40;;;;;;;9.9;2.9;;;;;;;10.16;63.60742;1000.154;;;;
2020/03/04 12:28:05;;;;;;;7.7;2.9;;;;;;;10.45;62.95117;1000.197;;;;
2020/03/04 12:30:30;;;;;;;7.1;2.8;;;;;;;10.1;63.10449;1000.066;;;;
2020/03/04 12:32:55;;;;;;;7.1;2.5;;;;;;;10.37;61.1543;1000.091;;;;
2020/03/04 12:35:20;;;;;;;7;2.6;;;;;;;10.26;61.76855;1000.072;;;;
2020/03/04 12:37:45;;;;;;;9.3;3.1;;;;;;;10.06;61.77246;1000.115;;;;
2020/03/04 12:40:11;;;;;;;7.5;2.8;;;;;;;9.77;61.45703;1000.046;;;;
2020/03/04 12:42:36;;;;;;;6.8;2.4;;;;;;;10.23;60.72168;1000.024;;;;
2020/03/04 12:45:01;;;;;;;7.2;2.5;;;;;;;10.3;59.75879;1000.053;;;;
2020/03/04 12:47:26;;;;;;;8.2;2.8;;;;;;;10.29;60.12305;999.9648;;;;
2020/03/04 12:49:51;;;;;;;8.7;2.7;;;;;;;10.07;60.4707;999.9023;;;;
2020/03/04 12:52:17;;;;;;;7.7;2.9;;;;;;;9.96;60.92383;999.9587;;;;
2020/03/04 12:54:42;;;;;;;7;3;;;;;;;9.95;61.07129;999.9026;;;;
2020/03/04 12:57:07;;;;;;;7;2.9;;;;;;;9.83;61.36328;999.9504;;;;
2020/03/04 12:59:32;;;;;;;8.7;2.9;;;;;;;10.07;61.13281;999.9162;;;;
2020/03/04 13:01:57;;;;;;;7.6;3.1;;;;;;;10.31;61.00684;999.9077;;;;
2020/03/04 13:04:23;;;;;;;6.7;2.8;;;;;;;10.23;60.87109;999.8697;;;;
2020/03/04 13:06:48;;;;;;;7.5;2.9;;;;;;;10.08;61.07813;999.8293;;;;
2020/03/04 13:09:13;;;;;;;6.9;3.5;;;;;;;10.27;61.11719;999.7723;;;;
2020/03/04 13:11:38;;;;;;;9.7;3.6;;;;;;;10;61.96973;999.8132;;;;
2020/03/04 13:14:03;;;;;;;8.4;3;;;;;;;10.38;61.39453;999.7695;;;;
2020/03/04 13:16:28;;;;;;;8.1;3.2;;;;;;;10.39;61.38574;999.8555;;;;
2020/03/04 13:18:54;;;;;;;8.2;3.1;;;;;;;9.89;62.45801;999.8345;;;;
2020/03/04 13:21:19;;;;;;;8.1;3;;;;;;;9.39;63.80078;999.9127;;;;
2020/03/04 13:23:44;;;;;;;6.8;3.2;;;;;;;9.44;64.10645;999.9551;;;;
2020/03/04 13:26:09;;;;;;;9.9;3.6;;;;;;;9.53;63.70801;999.8631;;;;
2020/03/04 13:28:34;;;;;;;8.6;3.3;;;;;;;9.49;63.01465;999.7875;;;;
2020/03/04 13:31:00;;;;;;;7.8;3;;;;;;;9.16;63.48145;999.9152;;;;
2020/03/04 13:33:25;;;;;;;8.7;3.1;;;;;;;9.01;64.22461;999.7679;;;;
2020/03/04 13:35:50;;;;;;;7.5;3.1;;;;;;;9.32;63.27637;999.7892;;;;
2020/03/04 13:38:15;;;;;;;11.9;3.1;;;;;;;9.45;62.89551;999.8042;;;;
2020/03/04 13:40:40;;;;;;;9.1;3.1;;;;;;;9.46;62.89746;999.761;;;;
2020/03/04 13:43:05;;;;;;;9.2;3.2;;;;;;;9.72;62.58203;999.6938;;;;
2020/03/04 13:45:30;;;;;;;6.4;2.8;;;;;;;9.99;62.56445;999.652;;;;
2020/03/04 13:47:56;;;;;;;10.8;3.4;;;;;;;10.24;61.72949;999.6641;;;;
2020/03/04 13:50:21;;;;;;;7.5;3.2;;;;;;;9.94;62.39648;999.6396;;;;
2020/03/04 13:52:46;;;;;;;8.7;3.4;;;;;;;9.83;62.90625;999.5878;;;;
2020/03/04 13:55:11;;;;;;;10.4;3.7;;;;;;;10.18;61.50488;999.5568;;;;
2020/03/04 13:57:36;;;;;;;8.8;3.5;;;;;;;9.94;62.13184;999.5156;;;;
2020/03/04 14:00:01;;;;;;;9.2;4.3;;;;;;;9.61;63.44434;999.4147;;;;
2020/03/04 14:02:26;;;;;;;10.6;4;;;;;;;9.51;63.76172;999.5114;;;;
2020/03/04 14:04:51;;;;;;;10.5;4.2;;;;;;;9.47;64.79492;999.4842;;;;
2020/03/04 14:07:16;;;;;;;7.7;3.4;;;;;;;9.35;64.95898;999.4478;;;;
2020/03/04 14:09:42;;;;;;;8.7;3.7;;;;;;;9.42;65.07227;999.4519;;;;
2020/03/04 14:12:07;;;;;;;6.7;3.1;;;;;;;9.54;64.62207;999.4001;;;;
2020/03/04 14:14:32;;;;;;;8.7;3.6;;;;;;;9.71;64.6709;999.3553;;;;
2020/03/04 14:16:57;;;;;;;8.6;3.8;;;;;;;9.75;63.87695;999.3212;;;;
2020/03/04 14:19:22;;;;;;;9.9;3.7;;;;;;;9.93;63.48145;999.325;;;;
2020/03/04 14:21:48;;;;;;;8.5;3.5;;;;;;;10.1;63.36719;999.3247;;;;
2020/03/04 14:24:13;;;;;;;6.9;3.3;;;;;;;9.97;63.55469;999.2862;;;;
2020/03/04 14:26:37;;;;;;;12;4.2;;;;;;;10.02;63.83691;999.3013;;;;
2020/03/04 14:29:02;;;;;;;10.7;3.7;;;;;;;9.91;63.95703;999.3408;;;;